createdAt,value
2019-04-23T00:02:24.814Z,12.00
2019-04-23T00:05:02.455Z,9.78
2019-04-23T00:12:49.556Z,7.85
2019-04-23T00:18:00.481Z,9.48
2019-04-23T00:20:39.238Z,10.18
2019-04-23T00:23:12.534Z,14.35
2019-04-23T00:26:02.626Z,9.08
2019-04-23T00:31:18.252Z,10.00
2019-04-23T00:33:43.137Z,10.45
2019-04-23T00:36:25.679Z,11.35
2019-04-23T00:38:49.695Z,13.00
2019-04-23T00:46:42.030Z,9.68
2019-04-23T00:49:19.894Z,13.03
2019-04-23T00:51:50.100Z,8.53
2019-04-23T00:54:39.198Z,10.45
2019-04-23T00:57:13.556Z,6.58
2019-04-23T00:59:39.141Z,10.72
2019-04-23T01:02:01.196Z,7.30
2019-04-23T01:04:41.763Z,7.90
2019-04-23T01:07:16.379Z,7.47
2019-04-23T01:13:05.750Z,6.40
2019-04-23T01:15:42.634Z,9.50
2019-04-23T01:18:28.218Z,9.08
2019-04-23T01:20:52.836Z,9.25
2019-04-23T01:23:40.136Z,7.65
2019-04-23T01:26:26.441Z,8.85
2019-04-23T01:29:06.768Z,10.18
2019-04-23T01:31:51.934Z,8.18
2019-04-23T01:34:33.305Z,11.33
2019-04-23T01:37:00.872Z,10.05
2019-04-23T01:39:41.523Z,10.88
2019-04-23T01:42:26.662Z,10.82
2019-04-23T01:44:50.373Z,9.18
2019-04-23T01:47:24.175Z,10.25
2019-04-23T01:50:02.021Z,10.20
2019-04-23T01:52:32.045Z,10.63
2019-04-23T01:55:02.976Z,8.23
2019-04-23T01:57:39.197Z,8.98
2019-04-23T02:00:17.156Z,12.13
2019-04-23T02:02:49.840Z,38.60
2019-04-23T02:08:40.472Z,22.35
2019-04-23T02:11:13.263Z,16.40
2019-04-23T02:13:53.257Z,10.63
2019-04-23T02:16:25.865Z,9.03
2019-04-23T02:19:05.807Z,10.98
2019-04-23T02:21:33.405Z,10.43
2019-04-23T02:24:12.687Z,14.18
2019-04-23T02:26:36.829Z,12.53
2019-04-23T02:29:32.051Z,13.45
2019-04-23T02:37:02.145Z,9.65
2019-04-23T02:39:40.114Z,11.30
2019-04-23T02:44:39.681Z,9.33
2019-04-23T02:47:25.806Z,9.93
2019-04-23T02:52:28.896Z,8.83
2019-04-23T02:55:03.797Z,8.53
2019-04-23T02:57:35.496Z,9.85
2019-04-23T03:00:18.446Z,11.08
2019-04-23T03:05:11.627Z,12.95
2019-04-23T03:07:45.428Z,13.90
2019-04-23T03:10:20.899Z,11.97
2019-04-23T03:24:34.968Z,25.15
2019-04-23T03:27:05.297Z,25.62
2019-04-23T03:39:54.709Z,18.73
2019-04-23T03:45:20.182Z,17.32
2019-04-23T03:50:18.012Z,25.45
2019-04-23T03:52:38.553Z,76.10
2019-04-23T03:55:28.059Z,61.00
2019-04-23T04:00:32.945Z,14.38
2019-04-23T04:03:04.771Z,12.98
2019-04-23T04:08:13.786Z,8.30
2019-04-23T04:11:03.608Z,17.80
2019-04-23T04:13:22.781Z,10.48
2019-04-23T04:15:55.705Z,18.37
2019-04-23T04:21:04.825Z,11.83
2019-04-23T04:23:41.042Z,13.83
2019-04-23T04:26:05.267Z,14.35
2019-04-23T04:31:16.662Z,17.40
2019-04-23T04:34:05.566Z,17.92
2019-04-23T04:46:45.480Z,10.65
2019-04-23T04:49:27.337Z,13.07
2019-04-23T05:12:30.761Z,12.30
2019-04-23T05:15:03.033Z,16.80
2019-04-23T05:17:59.711Z,22.50
2019-04-23T05:20:26.026Z,20.27
2019-04-23T05:23:06.127Z,20.83
2019-04-23T05:25:24.357Z,11.97
2019-04-23T05:28:07.732Z,20.60
2019-04-23T05:33:18.400Z,19.90
2019-04-23T05:36:06.063Z,12.73
2019-04-23T05:38:37.450Z,12.10
2019-04-23T05:41:06.709Z,12.80
2019-04-23T05:43:34.288Z,9.20
2019-04-23T05:46:04.461Z,11.73
2019-04-23T05:48:40.530Z,9.37
2019-04-23T05:56:22.614Z,16.93
2019-04-23T05:59:06.257Z,18.73
2019-04-23T06:04:27.092Z,32.63
2019-04-23T06:07:11.470Z,19.73
2019-04-23T06:14:41.125Z,24.60
2019-04-23T06:17:02.197Z,22.63
2019-04-23T06:19:30.412Z,14.03
2019-04-23T06:24:45.147Z,22.67
2019-04-23T06:27:22.074Z,15.23
2019-04-23T06:29:50.122Z,17.50
2019-04-23T06:32:25.990Z,11.53
2019-04-23T06:34:56.658Z,23.83
2019-04-23T06:37:49.837Z,24.87
2019-04-23T06:40:12.026Z,40.40
2019-04-23T06:43:04.718Z,23.53
2019-04-23T06:45:32.146Z,43.97
2019-04-23T06:48:16.647Z,38.13
2019-04-23T06:50:54.908Z,46.03
2019-04-23T06:53:18.479Z,68.23
2019-04-23T06:55:59.870Z,54.60
2019-04-23T06:58:32.116Z,56.37
2019-04-23T07:01:04.897Z,52.00
2019-04-23T07:03:43.760Z,31.03
2019-04-23T07:11:39.030Z,63.07
2019-04-23T07:14:13.283Z,40.57
2019-04-23T07:16:54.594Z,42.27
2019-04-23T07:19:30.540Z,15.53
2019-04-23T07:22:12.929Z,16.30
2019-04-23T07:24:41.864Z,40.03
2019-04-23T07:27:13.556Z,31.13
2019-04-23T07:29:58.217Z,47.40
2019-04-23T07:32:23.641Z,76.30
2019-04-23T07:35:07.069Z,34.67
2019-04-23T07:37:43.213Z,27.90
2019-04-23T07:43:08.732Z,14.97
2019-04-23T07:46:12.288Z,60.27
2019-04-23T07:48:27.460Z,74.30
2019-04-23T07:51:14.561Z,34.43
2019-04-23T07:53:53.547Z,33.30
2019-04-23T07:56:24.099Z,65.70
2019-04-23T07:58:54.384Z,32.43
2019-04-23T08:01:29.809Z,10.43
2019-04-23T08:04:29.664Z,17.83
2019-04-23T08:09:17.791Z,17.37
2019-04-23T08:12:07.923Z,45.63
2019-04-23T08:14:32.800Z,24.43
2019-04-23T08:16:58.174Z,20.63
2019-04-23T08:19:52.344Z,9.60
2019-04-23T08:22:25.941Z,13.97
2019-04-23T08:27:42.036Z,16.93
2019-04-23T08:30:15.271Z,50.80
2019-04-23T08:32:57.304Z,30.13
2019-04-23T08:35:31.526Z,14.27
2019-04-23T08:38:25.973Z,14.93
2019-04-23T08:40:47.310Z,16.97
2019-04-23T08:43:36.794Z,12.17
2019-04-23T08:46:33.594Z,12.83
2019-04-23T08:49:10.827Z,10.57
2019-04-23T08:52:00.248Z,17.47
2019-04-23T08:54:30.171Z,29.77
2019-04-23T08:56:57.007Z,25.57
2019-04-23T08:59:40.977Z,14.20
2019-04-23T09:02:17.559Z,11.43
2019-04-23T09:04:51.916Z,8.43
2019-04-23T09:07:18.902Z,16.17
2019-04-23T09:09:50.786Z,19.87
2019-04-23T09:12:26.893Z,8.93
2019-04-23T09:14:58.356Z,9.30
2019-04-23T09:17:36.089Z,13.30
2019-04-23T09:25:26.496Z,11.57
2019-04-23T09:27:45.257Z,6.23
2019-04-23T09:33:13.896Z,6.17
2019-04-23T09:36:03.048Z,9.27
2019-04-23T09:39:00.286Z,5.40
2019-04-23T09:41:38.136Z,10.07
2019-04-23T09:44:56.526Z,11.00
2019-04-23T09:47:37.135Z,4.67
2019-04-23T09:53:06.676Z,5.43
2019-04-23T09:55:51.461Z,7.93
2019-04-23T09:58:16.721Z,6.77
2019-04-23T10:01:14.191Z,5.97
2019-04-23T10:03:36.294Z,11.67
2019-04-23T10:06:04.280Z,7.70
2019-04-23T10:08:36.337Z,9.77
2019-04-23T10:11:07.243Z,6.53
2019-04-23T10:13:42.653Z,6.20
2019-04-23T10:16:34.463Z,7.97
2019-04-23T10:19:08.012Z,7.10
2019-04-23T10:21:41.877Z,9.60
2019-04-23T10:24:16.967Z,8.73
2019-04-23T10:26:50.368Z,5.83
2019-04-23T10:29:27.975Z,5.20
2019-04-23T10:32:01.907Z,4.13
2019-04-23T10:34:47.852Z,8.00
2019-04-23T10:37:11.395Z,7.13
2019-04-23T10:39:52.723Z,8.80
2019-04-23T10:42:21.597Z,6.17
2019-04-23T10:45:34.945Z,5.87
2019-04-23T10:49:12.904Z,4.90
2019-04-23T10:51:43.318Z,12.40
2019-04-23T10:54:26.372Z,5.87
2019-04-23T10:56:51.660Z,8.90
2019-04-23T11:07:31.274Z,8.97
2019-04-23T11:10:13.109Z,6.97
2019-04-23T11:13:10.581Z,10.23
2019-04-23T11:18:01.017Z,8.67
2019-04-23T11:23:19.201Z,11.13
2019-04-23T11:25:49.204Z,10.93
2019-04-23T11:28:25.983Z,10.30
2019-04-23T11:31:06.936Z,9.30
2019-04-23T11:33:43.041Z,14.60
2019-04-23T11:38:17.110Z,11.47
2019-04-23T11:41:46.390Z,9.27
2019-04-23T11:44:19.002Z,11.47
2019-04-23T11:46:57.225Z,12.70
2019-04-23T11:49:36.376Z,15.23
2019-04-23T11:52:03.201Z,19.00
2019-04-23T11:54:30.834Z,35.33
2019-04-23T11:57:21.883Z,11.40
2019-04-23T11:59:53.489Z,11.57
2019-04-23T12:05:34.990Z,13.80
2019-04-23T12:08:26.673Z,7.23
2019-04-23T12:11:39.463Z,7.70
2019-04-23T12:14:30.237Z,7.87
2019-04-23T12:19:57.786Z,13.47
2019-04-23T12:22:18.104Z,11.17
2019-04-23T12:27:33.344Z,8.13
2019-04-23T12:35:16.221Z,10.33
2019-04-23T12:37:44.886Z,8.43
2019-04-23T12:45:42.234Z,8.77
2019-04-23T12:48:15.873Z,6.50
2019-04-23T12:53:29.342Z,7.23
2019-04-23T12:55:50.528Z,8.70
2019-04-23T13:00:58.659Z,6.20
2019-04-23T13:03:40.857Z,7.37
2019-04-23T13:06:15.572Z,7.13
2019-04-23T13:09:00.886Z,9.27
2019-04-23T13:14:00.446Z,7.10
2019-04-23T13:16:39.498Z,7.10
2019-04-23T13:19:14.680Z,8.10
2019-04-23T13:24:34.562Z,16.03
2019-04-23T13:27:15.838Z,8.57
2019-04-23T13:29:49.918Z,5.23
2019-04-23T13:32:36.080Z,6.60
2019-04-23T13:35:25.569Z,4.00
2019-04-23T13:38:02.074Z,6.17
2019-04-23T13:40:23.975Z,8.43
2019-04-23T13:43:08.168Z,10.20
2019-04-23T13:45:56.449Z,7.33
2019-04-23T13:50:49.965Z,8.07
2019-04-23T13:53:33.553Z,7.57
2019-04-23T13:55:44.412Z,10.77
2019-04-23T14:01:08.986Z,9.73
2019-04-23T14:03:42.949Z,8.23
2019-04-23T14:06:34.532Z,6.33
2019-04-23T14:08:59.357Z,6.97
2019-04-23T14:11:26.447Z,11.20
2019-04-23T14:16:39.450Z,6.90
2019-04-23T14:19:04.026Z,15.37
2019-04-23T14:21:49.116Z,13.43
2019-04-23T14:24:31.994Z,13.70
2019-04-23T14:26:58.450Z,8.33
2019-04-23T14:29:39.339Z,7.40
2019-04-23T14:32:08.566Z,6.67
2019-04-23T14:34:43.966Z,18.47
2019-04-23T14:39:52.764Z,8.40
2019-04-23T14:42:35.226Z,7.00
2019-04-23T14:45:13.510Z,8.63
2019-04-23T14:47:40.358Z,6.00
2019-04-23T14:50:32.408Z,9.43
2019-04-23T14:52:56.871Z,13.13
2019-04-23T14:55:49.344Z,4.90
2019-04-23T14:58:10.112Z,8.67
2019-04-23T15:00:43.397Z,10.07
2019-04-23T15:03:19.946Z,9.00
2019-04-23T15:06:00.121Z,11.27
2019-04-23T15:08:30.373Z,10.60
2019-04-23T15:11:44.134Z,9.10
2019-04-23T15:13:55.169Z,7.40
2019-04-23T15:28:00.096Z,8.10
2019-04-23T15:29:31.774Z,10.47
2019-04-23T15:35:11.705Z,10.07
2019-04-23T15:38:14.270Z,9.40
2019-04-23T15:40:16.497Z,9.37
2019-04-23T15:42:53.817Z,11.37
2019-04-23T15:45:15.123Z,14.00
2019-04-23T15:48:04.973Z,14.03
2019-04-23T15:53:04.777Z,15.27
2019-04-23T15:55:50.219Z,18.30
2019-04-23T16:03:29.035Z,12.77
2019-04-23T16:06:02.630Z,12.57
2019-04-23T16:14:22.756Z,10.00
2019-04-23T16:19:57.833Z,25.47
2019-04-23T16:22:13.301Z,17.40
2019-04-23T16:24:48.506Z,17.17
2019-04-23T16:27:46.875Z,16.33
2019-04-23T16:30:10.463Z,21.50
2019-04-23T16:33:08.388Z,19.87
2019-04-23T16:40:57.215Z,18.47
2019-04-23T16:43:35.611Z,24.10
2019-04-23T16:46:11.903Z,20.20
2019-04-23T16:48:55.456Z,22.63
2019-04-23T16:51:24.694Z,20.03
2019-04-23T16:53:54.913Z,23.47
2019-04-23T16:59:08.754Z,28.27
2019-04-23T17:01:35.031Z,30.60
2019-04-23T17:04:19.594Z,22.67
2019-04-23T17:07:03.738Z,24.20
2019-04-23T17:12:16.227Z,27.20
2019-04-23T17:14:57.263Z,24.80
2019-04-23T17:17:25.425Z,41.90
2019-04-23T17:20:10.223Z,36.97
2019-04-23T17:25:17.231Z,57.03
2019-04-23T17:28:06.730Z,62.87
2019-04-23T17:30:33.651Z,59.47
2019-04-23T17:38:49.766Z,85.20
2019-04-23T17:41:44.010Z,87.67
2019-04-23T17:46:51.059Z,119.67
2019-04-23T17:49:26.306Z,115.70
2019-04-23T17:51:56.296Z,121.10
2019-04-23T17:54:30.913Z,109.03
2019-04-23T17:57:16.950Z,114.17
2019-04-23T18:00:12.705Z,119.10
2019-04-23T18:05:06.220Z,127.50
2019-04-23T18:15:17.686Z,135.33
2019-04-23T18:18:03.743Z,131.17
2019-04-23T18:21:14.303Z,120.73
2019-04-23T18:24:02.731Z,105.10
2019-04-23T18:26:45.795Z,101.10
2019-04-23T18:32:37.626Z,74.50
2019-04-23T18:35:17.047Z,45.90
2019-04-23T18:37:36.082Z,54.87
2019-04-23T18:40:05.174Z,40.00
2019-04-23T18:42:57.692Z,43.43
2019-04-23T18:48:35.496Z,49.90
2019-04-23T18:51:00.689Z,59.20
2019-04-23T18:53:48.414Z,59.23
2019-04-23T18:56:30.584Z,55.53
2019-04-23T19:02:24.350Z,58.03
2019-04-23T19:05:19.089Z,51.20
2019-04-23T19:08:23.471Z,44.60
2019-04-23T19:11:13.747Z,44.33
2019-04-23T19:13:50.927Z,30.07
2019-04-23T19:16:33.881Z,25.67
2019-04-23T19:19:02.667Z,28.07
2019-04-23T19:22:05.313Z,27.97
2019-04-23T19:24:27.631Z,25.80
2019-04-23T19:27:11.975Z,23.40
2019-04-23T19:29:46.305Z,19.53
2019-04-23T19:32:11.239Z,14.33
2019-04-23T19:34:46.886Z,13.80
2019-04-23T19:37:24.428Z,19.53
2019-04-23T19:39:53.358Z,18.40
2019-04-23T19:42:44.740Z,20.03
2019-04-23T19:45:16.918Z,15.50
2019-04-23T19:47:55.954Z,17.37
2019-04-23T19:50:29.879Z,24.93
2019-04-23T19:53:17.728Z,30.97
2019-04-23T19:55:47.473Z,35.73
2019-04-23T19:58:23.983Z,44.90
2019-04-23T20:11:13.467Z,18.27
2019-04-23T20:13:54.199Z,17.67
2019-04-23T20:16:29.918Z,13.33
2019-04-23T20:18:57.717Z,19.87
2019-04-23T20:21:41.929Z,13.63
2019-04-23T20:26:45.833Z,20.47
2019-04-23T20:35:10.959Z,20.00
2019-04-23T20:38:19.251Z,46.60
2019-04-23T20:40:40.111Z,49.73
2019-04-23T20:43:07.099Z,52.63
2019-04-23T20:45:46.564Z,48.43
2019-04-23T20:48:25.324Z,43.57
2019-04-23T20:50:52.356Z,46.80
2019-04-23T20:53:31.067Z,52.00
2019-04-23T20:56:08.486Z,36.90
2019-04-23T20:58:59.762Z,38.20
2019-04-23T21:01:46.744Z,63.43
2019-04-23T21:04:17.302Z,46.20
2019-04-23T21:06:56.438Z,34.83
2019-04-23T21:09:38.390Z,37.60
2019-04-23T21:12:15.918Z,39.13
2019-04-23T21:15:08.614Z,36.63
2019-04-23T21:17:33.638Z,38.13
2019-04-23T21:20:08.532Z,39.00
2019-04-23T21:22:51.432Z,35.97
2019-04-23T21:25:05.316Z,45.87
2019-04-23T21:33:17.832Z,132.37
2019-04-23T21:36:13.830Z,72.50
2019-04-23T21:41:54.776Z,51.03
2019-04-23T21:46:54.245Z,60.20
2019-04-23T21:50:03.252Z,41.57
2019-04-23T21:52:17.958Z,39.67
2019-04-23T21:55:00.544Z,38.40
2019-04-23T21:57:37.054Z,27.07
2019-04-23T22:00:38.166Z,25.93
2019-04-23T22:03:15.380Z,21.53
2019-04-23T22:08:25.928Z,22.77
2019-04-23T22:11:24.268Z,26.33
2019-04-23T22:13:51.092Z,25.43
2019-04-23T22:21:43.302Z,32.13
2019-04-23T22:24:07.276Z,30.53
2019-04-23T22:31:53.806Z,31.37
2019-04-23T22:34:54.216Z,30.10
2019-04-23T22:43:01.311Z,28.63
2019-04-23T22:45:26.577Z,30.27
2019-04-23T22:50:19.090Z,33.37
2019-04-23T22:53:10.965Z,30.23
2019-04-23T22:55:34.824Z,30.53
2019-04-23T23:00:49.782Z,33.10
2019-04-23T23:03:27.057Z,26.73
2019-04-23T23:06:12.779Z,30.03
2019-04-23T23:08:50.468Z,27.53
2019-04-23T23:11:08.509Z,30.50
2019-04-23T23:14:05.158Z,27.37
2019-04-23T23:16:21.697Z,33.30
2019-04-23T23:19:07.035Z,33.43
2019-04-23T23:21:48.532Z,31.33
2019-04-23T23:24:10.051Z,29.67
2019-04-23T23:29:19.139Z,28.07
2019-04-23T23:32:24.464Z,19.40
2019-04-23T23:35:08.041Z,25.70
2019-04-23T23:37:28.552Z,20.40
2019-04-23T23:42:48.816Z,17.97
2019-04-23T23:45:18.492Z,17.40
2019-04-23T23:47:51.950Z,26.83
2019-04-23T23:50:32.352Z,26.27
2019-04-23T23:53:02.470Z,24.00
2019-04-23T23:55:27.880Z,24.97
2019-04-23T23:58:16.809Z,26.43
